sensor_id;sensor_type;location;lat;lon;timestamp;pressure;altitude;pressure_sealevel;temperature;humidity
38038;BME280;23843;51.320;12.340;2024-03-23T00:54:09;99496.28;;;12.90;62.30
38038;BME280;23843;51.320;12.340;2024-03-23T00:56:34;99494.34;;;12.91;62.29
38038;BME280;23843;51.320;12.340;2024-03-23T00:58:59;99483.19;;;12.91;61.89
38038;BME280;23843;51.320;12.340;2024-03-23T01:01:25;99486.81;;;12.91;62.04
38038;BME280;23843;51.320;12.340;2024-03-23T01:03:50;99479.00;;;12.88;62.05
38038;BME280;23843;51.320;12.340;2024-03-23T01:06:16;99478.72;;;12.90;62.16
38038;BME280;23843;51.320;12.340;2024-03-23T01:08:41;99468.69;;;12.88;62.35
38038;BME280;23843;51.320;12.340;2024-03-23T01:11:08;99465.06;;;12.88;62.06
38038;BME280;23843;51.320;12.340;2024-03-23T01:13:34;99456.94;;;12.86;62.15
38038;BME280;23843;51.320;12.340;2024-03-23T01:15:59;99463.94;;;12.84;62.65
38038;BME280;23843;51.320;12.340;2024-03-23T01:18:25;99462.25;;;12.83;62.01
38038;BME280;23843;51.320;12.340;2024-03-23T01:20:50;99462.78;;;12.80;62.58
38038;BME280;23843;51.320;12.340;2024-03-23T01:23:16;99437.69;;;12.75;62.54
38038;BME280;23843;51.320;12.340;2024-03-23T01:25:41;99437.38;;;12.71;62.91
38038;BME280;23843;51.320;12.340;2024-03-23T01:28:08;99444.03;;;12.65;62.29
38038;BME280;23843;51.320;12.340;2024-03-23T01:30:34;99448.19;;;12.58;62.54
38038;BME280;23843;51.320;12.340;2024-03-23T01:32:59;99444.53;;;12.52;62.84
38038;BME280;23843;51.320;12.340;2024-03-23T01:35:25;99432.28;;;12.48;62.53
38038;BME280;23843;51.320;12.340;2024-03-23T01:37:50;99433.06;;;12.43;62.86
38038;BME280;23843;51.320;12.340;2024-03-23T01:40:16;99426.09;;;12.41;62.59
38038;BME280;23843;51.320;12.340;2024-03-23T01:42:42;99424.09;;;12.36;62.97
38038;BME280;23843;51.320;12.340;2024-03-23T01:45:09;99419.94;;;12.34;62.76
38038;BME280;23843;51.320;12.340;2024-03-23T01:47:34;99412.13;;;12.31;63.03
38038;BME280;23843;51.320;12.340;2024-03-23T01:50:00;99412.94;;;12.26;62.90
38038;BME280;23843;51.320;12.340;2024-03-23T01:52:26;99413.47;;;12.23;63.16
38038;BME280;23843;51.320;12.340;2024-03-23T01:54:51;99416.78;;;12.20;62.76
38038;BME280;23843;51.320;12.340;2024-03-23T01:57:17;99427.34;;;12.18;62.65
38038;BME280;23843;51.320;12.340;2024-03-23T01:59:42;99421.47;;;12.15;62.65
38038;BME280;23843;51.320;12.340;2024-03-23T02:02:09;99422.31;;;12.15;63.21
38038;BME280;23843;51.320;12.340;2024-03-23T02:04:35;99420.63;;;12.14;63.22
38038;BME280;23843;51.320;12.340;2024-03-23T02:07:00;99416.47;;;12.12;63.30
38038;BME280;23843;51.320;12.340;2024-03-23T02:09:26;99420.59;;;12.04;62.81
38038;BME280;23843;51.320;12.340;2024-03-23T02:11:51;99414.69;;;12.00;62.84
38038;BME280;23843;51.320;12.340;2024-03-23T02:14:17;99420.81;;;11.97;63.23
38038;BME280;23843;51.320;12.340;2024-03-23T02:16:43;99411.06;;;11.95;62.82
38038;BME280;23843;51.320;12.340;2024-03-23T02:19:09;99407.09;;;11.91;62.90
38038;BME280;23843;51.320;12.340;2024-03-23T02:21:35;99408.50;;;11.88;63.52
38038;BME280;23843;51.320;12.340;2024-03-23T02:24:02;99395.09;;;11.85;63.47
38038;BME280;23843;51.320;12.340;2024-03-23T02:26:27;99391.19;;;11.81;63.38
38038;BME280;23843;51.320;12.340;2024-03-23T02:28:53;99385.25;;;11.73;63.63
38038;BME280;23843;51.320;12.340;2024-03-23T02:31:18;99373.50;;;11.65;63.24
38038;BME280;23843;51.320;12.340;2024-03-23T02:33:43;99370.69;;;11.60;63.68
38038;BME280;23843;51.320;12.340;2024-03-23T02:36:09;99371.75;;;11.54;63.22
38038;BME280;23843;51.320;12.340;2024-03-23T02:38:34;99372.25;;;11.46;63.43
38038;BME280;23843;51.320;12.340;2024-03-23T02:41:03;99371.06;;;11.37;63.20
38038;BME280;23843;51.320;12.340;2024-03-23T02:43:29;99363.50;;;11.32;64.06
38038;BME280;23843;51.320;12.340;2024-03-23T02:45:54;99357.63;;;11.29;63.98
38038;BME280;23843;51.320;12.340;2024-03-23T02:48:20;99365.97;;;11.29;63.62
38038;BME280;23843;51.320;12.340;2024-03-23T02:50:45;99359.84;;;11.27;64.00
38038;BME280;23843;51.320;12.340;2024-03-23T02:53:11;99361.78;;;11.26;64.01
38038;BME280;23843;51.320;12.340;2024-03-23T02:55:36;99352.88;;;11.24;64.00
38038;BME280;23843;51.320;12.340;2024-03-23T02:58:03;99346.75;;;11.22;63.85
38038;BME280;23843;51.320;12.340;2024-03-23T03:00:29;99339.50;;;11.21;64.00
38038;BME280;23843;51.320;12.340;2024-03-23T03:02:54;99342.28;;;11.21;63.89
38038;BME280;23843;51.320;12.340;2024-03-23T03:05:20;99350.63;;;11.21;63.78
38038;BME280;23843;51.320;12.340;2024-03-23T03:07:45;99348.16;;;11.25;63.64
38038;BME280;23843;51.320;12.340;2024-03-23T03:10:11;99345.69;;;11.28;63.77
38038;BME280;23843;51.320;12.340;2024-03-23T03:12:36;99344.31;;;11.31;63.41
38038;BME280;23843;51.320;12.340;2024-03-23T03:15:04;99340.16;;;11.33;63.53
38038;BME280;23843;51.320;12.340;2024-03-23T03:17:29;99335.75;;;11.38;63.54
38038;BME280;23843;51.320;12.340;2024-03-23T03:19:55;99324.06;;;11.41;63.51
38038;BME280;23843;51.320;12.340;2024-03-23T03:22:20;99316.56;;;11.41;63.49
38038;BME280;23843;51.320;12.340;2024-03-23T03:24:46;99303.00;;;11.45;63.78
38038;BME280;23843;51.320;12.340;2024-03-23T03:27:11;99288.25;;;11.44;63.54
38038;BME280;23843;51.320;12.340;2024-03-23T03:29:37;99286.81;;;11.42;63.55
38038;BME280;23843;51.320;12.340;2024-03-23T03:32:04;99283.19;;;11.36;63.46
38038;BME280;23843;51.320;12.340;2024-03-23T03:34:29;99287.59;;;11.32;63.70
38038;BME280;23843;51.320;12.340;2024-03-23T03:36:55;99286.19;;;11.29;63.60
38038;BME280;23843;51.320;12.340;2024-03-23T03:39:20;99283.94;;;11.26;63.62
38038;BME280;23843;51.320;12.340;2024-03-23T03:41:45;99285.03;;;11.25;63.19
38038;BME280;23843;51.320;12.340;2024-03-23T03:44:11;99276.41;;;11.22;63.87
38038;BME280;23843;51.320;12.340;2024-03-23T03:46:36;99280.03;;;11.22;63.42
38038;BME280;23843;51.320;12.340;2024-03-23T03:49:03;99281.97;;;11.22;63.60
38038;BME280;23843;51.320;12.340;2024-03-23T03:51:29;99277.53;;;11.26;63.68
38038;BME280;23843;51.320;12.340;2024-03-23T03:53:54;99268.66;;;11.29;63.75
38038;BME280;23843;51.320;12.340;2024-03-23T03:56:19;99271.69;;;11.22;63.63
38038;BME280;23843;51.320;12.340;2024-03-23T03:58:45;99271.34;;;11.19;63.51
38038;BME280;23843;51.320;12.340;2024-03-23T04:01:10;99278.31;;;11.16;63.34
38038;BME280;23843;51.320;12.340;2024-03-23T04:03:36;99274.38;;;11.12;63.26
38038;BME280;23843;51.320;12.340;2024-03-23T04:06:03;99274.38;;;11.12;63.31
38038;BME280;23843;51.320;12.340;2024-03-23T04:08:28;99272.16;;;11.14;63.90
38038;BME280;23843;51.320;12.340;2024-03-23T04:10:54;99268.31;;;11.20;63.51
38038;BME280;23843;51.320;12.340;2024-03-23T04:13:19;99248.59;;;11.22;63.33
38038;BME280;23843;51.320;12.340;2024-03-23T04:15:45;99243.88;;;11.22;63.58
38038;BME280;23843;51.320;12.340;2024-03-23T04:18:10;99214.41;;;11.21;63.30
38038;BME280;23843;51.320;12.340;2024-03-23T04:20:36;99207.16;;;11.20;63.35
38038;BME280;23843;51.320;12.340;2024-03-23T04:23:03;99206.31;;;11.20;63.46
38038;BME280;23843;51.320;12.340;2024-03-23T04:25:28;99194.34;;;11.19;63.21
38038;BME280;23843;51.320;12.340;2024-03-23T04:27:54;99192.13;;;11.16;63.41
38038;BME280;23843;51.320;12.340;2024-03-23T04:30:19;99188.50;;;11.16;62.95
38038;BME280;23843;51.320;12.340;2024-03-23T04:32:44;99186.28;;;11.18;63.08
38038;BME280;23843;51.320;12.340;2024-03-23T04:35:10;99179.91;;;11.17;63.30
38038;BME280;23843;51.320;12.340;2024-03-23T04:37:36;99175.97;;;11.13;62.93
38038;BME280;23843;51.320;12.340;2024-03-23T04:40:03;99169.28;;;11.09;63.20
38038;BME280;23843;51.320;12.340;2024-03-23T04:42:29;99175.63;;;11.05;63.31
38038;BME280;23843;51.320;12.340;2024-03-23T04:44:55;99168.69;;;11.02;63.11
38038;BME280;23843;51.320;12.340;2024-03-23T04:47:20;99163.41;;;11.01;63.02
38038;BME280;23843;51.320;12.340;2024-03-23T04:49:46;99151.69;;;10.99;63.23
38038;BME280;23843;51.320;12.340;2024-03-23T04:52:11;99153.91;;;10.97;63.34
38038;BME280;23843;51.320;12.340;2024-03-23T04:54:37;99146.38;;;10.92;63.49
38038;BME280;23843;51.320;12.340;2024-03-23T04:57:04;99146.63;;;10.90;63.32
38038;BME280;23843;51.320;12.340;2024-03-23T04:59:29;99154.13;;;10.90;63.17
38038;BME280;23843;51.320;12.340;2024-03-23T05:01:55;99139.69;;;10.88;62.93
38038;BME280;23843;51.320;12.340;2024-03-23T05:04:20;99125.25;;;10.91;62.93
38038;BME280;23843;51.320;12.340;2024-03-23T05:06:46;99109.41;;;10.91;62.92
38038;BME280;23843;51.320;12.340;2024-03-23T05:09:11;99105.78;;;10.91;63.15
38038;BME280;23843;51.320;12.340;2024-03-23T05:11:37;99095.84;;;10.95;63.16
38038;BME280;23843;51.320;12.340;2024-03-23T05:14:04;99097.19;;;10.92;63.06
38038;BME280;23843;51.320;12.340;2024-03-23T05:16:29;99105.78;;;10.91;62.92
38038;BME280;23843;51.320;12.340;2024-03-23T05:21:23;99083.28;;;10.87;62.91
38038;BME280;23843;51.320;12.340;2024-03-23T05:23:49;99076.31;;;10.85;63.11
38038;BME280;23843;51.320;12.340;2024-03-23T05:26:17;99075.47;;;10.79;63.26
38038;BME280;23843;51.320;12.340;2024-03-23T05:28:43;99080.16;;;10.74;63.66
38038;BME280;23843;51.320;12.340;2024-03-23T05:31:10;99085.13;;;10.72;63.97
38038;BME280;23843;51.320;12.340;2024-03-23T05:33:35;99079.50;;;10.67;63.76
38038;BME280;23843;51.320;12.340;2024-03-23T05:36:01;99080.34;;;10.67;63.47
38038;BME280;23843;51.320;12.340;2024-03-23T05:38:27;99083.44;;;10.71;63.43
38038;BME280;23843;51.320;12.340;2024-03-23T05:40:53;99080.66;;;10.71;63.51
38038;BME280;23843;51.320;12.340;2024-03-23T05:43:19;99073.47;;;10.75;63.90
38038;BME280;23843;51.320;12.340;2024-03-23T05:45:44;99072.94;;;10.78;63.70
38038;BME280;23843;51.320;12.340;2024-03-23T05:48:11;99056.53;;;10.76;63.93
38038;BME280;23843;51.320;12.340;2024-03-23T05:50:36;99046.56;;;10.80;63.76
38038;BME280;23843;51.320;12.340;2024-03-23T05:53:02;99044.06;;;10.84;63.88
38038;BME280;23843;51.320;12.340;2024-03-23T05:55:27;99041.59;;;10.87;63.97
38038;BME280;23843;51.320;12.340;2024-03-23T05:57:53;99059.13;;;10.88;63.39
38038;BME280;23843;51.320;12.340;2024-03-23T06:00:19;99056.34;;;10.88;63.31
38038;BME280;23843;51.320;12.340;2024-03-23T06:02:44;99052.44;;;10.89;63.55
38038;BME280;23843;51.320;12.340;2024-03-23T06:05:11;99060.22;;;10.87;63.74
38038;BME280;23843;51.320;12.340;2024-03-23T06:07:37;99059.38;;;10.86;63.87
38038;BME280;23843;51.320;12.340;2024-03-23T06:10:02;99040.19;;;10.85;63.72
38038;BME280;23843;51.320;12.340;2024-03-23T06:12:28;99019.94;;;10.89;64.05
38038;BME280;23843;51.320;12.340;2024-03-23T06:14:54;99021.06;;;10.93;63.92
38038;BME280;23843;51.320;12.340;2024-03-23T06:17:19;99015.25;;;10.95;63.63
38038;BME280;23843;51.320;12.340;2024-03-23T06:19:45;99014.94;;;10.97;63.79
38038;BME280;23843;51.320;12.340;2024-03-23T06:22:11;99008.59;;;11.01;63.92
38038;BME280;23843;51.320;12.340;2024-03-23T06:24:37;99000.81;;;11.03;63.77
38038;BME280;23843;51.320;12.340;2024-03-23T06:27:02;98991.38;;;11.04;64.04
38038;BME280;23843;51.320;12.340;2024-03-23T06:29:28;98975.78;;;11.03;63.86
38038;BME280;23843;51.320;12.340;2024-03-23T06:31:54;98976.34;;;11.00;64.02
38038;BME280;23843;51.320;12.340;2024-03-23T06:34:19;98979.66;;;10.97;64.16
38038;BME280;23843;51.320;12.340;2024-03-23T06:36:46;98978.56;;;10.93;64.28
38038;BME280;23843;51.320;12.340;2024-03-23T06:39:13;98975.19;;;10.91;63.83
38038;BME280;23843;51.320;12.340;2024-03-23T06:41:39;98967.72;;;10.91;63.91
38038;BME280;23843;51.320;12.340;2024-03-23T06:44:04;98973.53;;;10.90;64.32
38038;BME280;23843;51.320;12.340;2024-03-23T06:46:29;98944.06;;;10.89;64.40
38038;BME280;23843;51.320;12.340;2024-03-23T06:48:55;98936.03;;;10.87;64.31
38038;BME280;23843;51.320;12.340;2024-03-23T06:51:20;98931.84;;;10.85;64.26
38038;BME280;23843;51.320;12.340;2024-03-23T06:53:46;98928.50;;;10.83;64.33
38038;BME280;23843;51.320;12.340;2024-03-23T06:56:13;98939.59;;;10.83;64.51
38038;BME280;23843;51.320;12.340;2024-03-23T06:58:38;98930.75;;;10.86;64.77
38038;BME280;23843;51.320;12.340;2024-03-23T07:01:04;98925.47;;;10.89;64.34
38038;BME280;23843;51.320;12.340;2024-03-23T07:03:29;98923.50;;;10.90;64.30
38038;BME280;23843;51.320;12.340;2024-03-23T07:05:57;98914.34;;;10.89;64.21
38038;BME280;23843;51.320;12.340;2024-03-23T07:08:23;98911.56;;;10.89;64.43
38038;BME280;23843;51.320;12.340;2024-03-23T07:10:48;98919.63;;;10.86;64.78
38038;BME280;23843;51.320;12.340;2024-03-23T07:13:15;98915.75;;;10.87;64.54
38038;BME280;23843;51.320;12.340;2024-03-23T07:15:41;98917.41;;;10.88;65.04
38038;BME280;23843;51.320;12.340;2024-03-23T07:18:06;98912.66;;;10.88;64.64
38038;BME280;23843;51.320;12.340;2024-03-23T07:20:31;98896.81;;;10.84;64.68
38038;BME280;23843;51.320;12.340;2024-03-23T07:22:57;98897.94;;;10.78;64.65
38038;BME280;23843;51.320;12.340;2024-03-23T07:25:22;98915.97;;;10.75;65.16
38038;BME280;23843;51.320;12.340;2024-03-23T07:27:48;98935.41;;;10.75;64.81
38038;BME280;23843;51.320;12.340;2024-03-23T07:30:15;98927.38;;;10.74;65.21
38038;BME280;23843;51.320;12.340;2024-03-23T07:32:40;98881.78;;;10.70;65.37
38038;BME280;23843;51.320;12.340;2024-03-23T07:35:06;98932.28;;;10.62;65.54
38038;BME280;23843;51.320;12.340;2024-03-23T07:37:32;98975.03;;;10.56;65.52
38038;BME280;23843;51.320;12.340;2024-03-23T07:39:57;98965.03;;;10.54;65.77
38038;BME280;23843;51.320;12.340;2024-03-23T07:42:23;98914.19;;;10.49;65.53
38038;BME280;23843;51.320;12.340;2024-03-23T07:44:48;98952.72;;;10.35;65.50
38038;BME280;23843;51.320;12.340;2024-03-23T07:47:15;98982.78;;;10.16;65.45
38038;BME280;23843;51.320;12.340;2024-03-23T07:49:41;98978.25;;;10.00;65.81
38038;BME280;23843;51.320;12.340;2024-03-23T07:52:06;98987.00;;;9.87;65.74
38038;BME280;23843;51.320;12.340;2024-03-23T07:54:32;99006.03;;;9.73;66.13
38038;BME280;23843;51.320;12.340;2024-03-23T07:56:57;99012.25;;;9.59;66.10
38038;BME280;23843;51.320;12.340;2024-03-23T07:59:22;99011.00;;;9.45;65.95
38038;BME280;23843;51.320;12.340;2024-03-23T08:01:48;99012.72;;;9.24;66.01
38038;BME280;23843;51.320;12.340;2024-03-23T08:04:15;98995.94;;;9.09;65.85
38038;BME280;23843;51.320;12.340;2024-03-23T08:06:40;98995.00;;;8.98;66.32
38038;BME280;23843;51.320;12.340;2024-03-23T08:09:06;99000.66;;;8.86;65.96
38038;BME280;23843;51.320;12.340;2024-03-23T08:11:32;99015.72;;;8.74;65.74
38038;BME280;23843;51.320;12.340;2024-03-23T08:13:57;99007.50;;;8.62;65.73
38038;BME280;23843;51.320;12.340;2024-03-23T08:16:23;99025.59;;;8.48;66.49
38038;BME280;23843;51.320;12.340;2024-03-23T08:18:50;99036.28;;;8.39;66.47
38038;BME280;23843;51.320;12.340;2024-03-23T08:21:18;99060.97;;;8.29;65.81
38038;BME280;23843;51.320;12.340;2024-03-23T08:23:43;99051.16;;;8.21;66.51
38038;BME280;23843;51.320;12.340;2024-03-23T08:26:10;99057.97;;;8.14;66.56
38038;BME280;23843;51.320;12.340;2024-03-23T08:28:36;99070.03;;;8.08;66.40
38038;BME280;23843;51.320;12.340;2024-03-23T08:31:02;99095.41;;;8.05;65.79
38038;BME280;23843;51.320;12.340;2024-03-23T08:33:28;99093.66;;;7.99;66.15
38038;BME280;23843;51.320;12.340;2024-03-23T08:35:54;99109.81;;;7.90;66.05
38038;BME280;23843;51.320;12.340;2024-03-23T08:38:21;99116.34;;;7.84;66.21
38038;BME280;23843;51.320;12.340;2024-03-23T08:40:46;99135.38;;;7.80;66.56
38038;BME280;23843;51.320;12.340;2024-03-23T08:43:12;99133.84;;;7.73;66.51
38038;BME280;23843;51.320;12.340;2024-03-23T08:45:37;99149.22;;;7.69;66.79
38038;BME280;23843;51.320;12.340;2024-03-23T08:48:03;99161.63;;;7.66;65.95
38038;BME280;23843;51.320;12.340;2024-03-23T08:50:29;99178.69;;;7.63;65.80
38038;BME280;23843;51.320;12.340;2024-03-23T08:52:54;99193.59;;;7.62;65.68
38038;BME280;23843;51.320;12.340;2024-03-23T08:55:21;99185.31;;;7.62;66.23
38038;BME280;23843;51.320;12.340;2024-03-23T08:57:46;99183.03;;;7.59;66.80
38038;BME280;23843;51.320;12.340;2024-03-23T09:00:13;99185.22;;;7.57;65.92
38038;BME280;23843;51.320;12.340;2024-03-23T09:02:39;99188.31;;;7.61;66.13
38038;BME280;23843;51.320;12.340;2024-03-23T09:05:05;99198.41;;;7.67;66.71
38038;BME280;23843;51.320;12.340;2024-03-23T09:07:30;99205.09;;;7.71;65.62
38038;BME280;23843;51.320;12.340;2024-03-23T09:09:56;99220.09;;;7.75;66.08
38038;BME280;23843;51.320;12.340;2024-03-23T09:12:23;99215.53;;;7.80;65.90
38038;BME280;23843;51.320;12.340;2024-03-23T09:14:49;99223.09;;;7.85;66.19
38038;BME280;23843;51.320;12.340;2024-03-23T09:17:14;99219.84;;;7.88;65.87
38038;BME280;23843;51.320;12.340;2024-03-23T09:19:40;99202.97;;;7.90;65.72
38038;BME280;23843;51.320;12.340;2024-03-23T09:22:06;99195.28;;;7.92;65.90
38038;BME280;23843;51.320;12.340;2024-03-23T09:24:31;99201.19;;;7.95;66.47
38038;BME280;23843;51.320;12.340;2024-03-23T09:26:57;99204.03;;;8.00;66.93
38038;BME280;23843;51.320;12.340;2024-03-23T09:29:24;99205.31;;;8.09;65.85
38038;BME280;23843;51.320;12.340;2024-03-23T09:31:50;99205.50;;;8.19;65.97
38038;BME280;23843;51.320;12.340;2024-03-23T09:34:15;99240.47;;;8.26;66.43
38038;BME280;23843;51.320;12.340;2024-03-23T09:36:41;99260.59;;;8.33;66.01
38038;BME280;23843;51.320;12.340;2024-03-23T09:39:06;99272.22;;;8.35;65.92
38038;BME280;23843;51.320;12.340;2024-03-23T09:41:32;99293.03;;;8.37;66.34
38038;BME280;23843;51.320;12.340;2024-03-23T09:43:57;99313.25;;;8.38;65.89
38038;BME280;23843;51.320;12.340;2024-03-23T09:46:24;99316.25;;;8.36;65.75
38038;BME280;23843;51.320;12.340;2024-03-23T09:48:50;99312.88;;;8.34;65.86
38038;BME280;23843;51.320;12.340;2024-03-23T09:51:15;99312.31;;;8.32;66.10
38038;BME280;23843;51.320;12.340;2024-03-23T09:53:41;99296.16;;;8.29;65.54
38038;BME280;23843;51.320;12.340;2024-03-23T09:56:07;99303.03;;;8.27;65.83
38038;BME280;23843;51.320;12.340;2024-03-23T09:58:32;99320.47;;;8.27;65.70
38038;BME280;23843;51.320;12.340;2024-03-23T10:00:58;99330.44;;;8.28;65.89
38038;BME280;23843;51.320;12.340;2024-03-23T10:03:25;99335.75;;;8.30;66.13
38038;BME280;23843;51.320;12.340;2024-03-23T10:06:00;99350.78;;;8.34;66.35
38038;BME280;23843;51.320;12.340;2024-03-23T10:08:28;99360.53;;;8.36;65.95
38038;BME280;23843;51.320;12.340;2024-03-23T10:10:54;99370.53;;;8.37;66.19
38038;BME280;23843;51.320;12.340;2024-03-23T10:13:26;99369.91;;;8.35;65.47
38038;BME280;23843;51.320;12.340;2024-03-23T10:15:56;99380.38;;;8.33;65.74
38038;BME280;23843;51.320;12.340;2024-03-23T10:18:21;99390.47;;;8.28;65.52
38038;BME280;23843;51.320;12.340;2024-03-23T10:20:51;99392.44;;;8.15;66.28
38038;BME280;23843;51.320;12.340;2024-03-23T10:23:17;99392.06;;;8.12;66.58
38038;BME280;23843;51.320;12.340;2024-03-23T10:25:43;99398.09;;;8.09;65.72
38038;BME280;23843;51.320;12.340;2024-03-23T10:28:08;99414.72;;;8.09;65.91
38038;BME280;23843;51.320;12.340;2024-03-23T10:30:34;99422.50;;;8.12;66.61
38038;BME280;23843;51.320;12.340;2024-03-23T10:33:07;99431.06;;;8.10;66.03
38038;BME280;23843;51.320;12.340;2024-03-23T10:35:33;99442.38;;;8.09;65.34
38038;BME280;23843;51.320;12.340;2024-03-23T10:37:59;99433.22;;;8.08;66.16
38038;BME280;23843;51.320;12.340;2024-03-23T10:40:26;99431.78;;;8.06;66.05
38038;BME280;23843;51.320;12.340;2024-03-23T10:42:52;99435.63;;;8.05;65.31
38038;BME280;23843;51.320;12.340;2024-03-23T10:45:19;99436.47;;;8.05;66.22
38038;BME280;23843;51.320;12.340;2024-03-23T10:47:44;99433.94;;;8.04;66.03
38038;BME280;23843;51.320;12.340;2024-03-23T10:50:10;99446.09;;;8.03;65.49
38038;BME280;23843;51.320;12.340;2024-03-23T10:52:35;99446.09;;;8.03;66.04
38038;BME280;23843;51.320;12.340;2024-03-23T10:55:04;99450.28;;;8.05;66.07
38038;BME280;23843;51.320;12.340;2024-03-23T10:57:36;99455.13;;;8.10;66.16
38038;BME280;23843;51.320;12.340;2024-03-23T11:00:05;99457.16;;;8.14;65.79
38038;BME280;23843;51.320;12.340;2024-03-23T11:02:31;99462.44;;;8.16;65.84
38038;BME280;23843;51.320;12.340;2024-03-23T11:04:56;99465.56;;;8.19;66.32
38038;BME280;23843;51.320;12.340;2024-03-23T11:07:29;99464.00;;;8.24;66.48
38038;BME280;23843;51.320;12.340;2024-03-23T11:09:55;99464.94;;;8.29;65.91
38038;BME280;23843;51.320;12.340;2024-03-23T11:12:30;99461.47;;;8.34;65.77
38038;BME280;23843;51.320;12.340;2024-03-23T11:14:58;99474.59;;;8.38;66.41
38038;BME280;23843;51.320;12.340;2024-03-23T11:17:25;99476.63;;;8.43;66.18
38038;BME280;23843;51.320;12.340;2024-03-23T11:19:54;99466.50;;;8.48;65.55
38038;BME280;23843;51.320;12.340;2024-03-23T11:22:38;99465.78;;;8.53;66.07
38038;BME280;23843;51.320;12.340;2024-03-23T11:25:12;99466.75;;;8.58;65.74
38038;BME280;23843;51.320;12.340;2024-03-23T11:27:39;99458.53;;;8.64;66.17
38038;BME280;23843;51.320;12.340;2024-03-23T11:30:17;99462.84;;;8.71;65.96
38038;BME280;23843;51.320;12.340;2024-03-23T11:32:44;99462.47;;;8.79;65.88
38038;BME280;23843;51.320;12.340;2024-03-23T11:35:09;99458.69;;;8.85;65.57
38038;BME280;23843;51.320;12.340;2024-03-23T11:37:36;99459.38;;;8.92;66.00
38038;BME280;23843;51.320;12.340;2024-03-23T11:40:17;99463.47;;;9.02;65.84
38038;BME280;23843;51.320;12.340;2024-03-23T11:42:44;99459.22;;;9.11;65.75
38038;BME280;23843;51.320;12.340;2024-03-23T11:45:10;99451.34;;;9.19;65.36
38038;BME280;23843;51.320;12.340;2024-03-23T11:47:36;99450.66;;;9.29;65.68
38038;BME280;23843;51.320;12.340;2024-03-23T11:50:01;99448.94;;;9.40;65.52
38038;BME280;23843;51.320;12.340;2024-03-23T11:52:26;99454.38;;;9.51;65.67
38038;BME280;23843;51.320;12.340;2024-03-23T11:55:03;99439.03;;;9.60;65.80
38038;BME280;23843;51.320;12.340;2024-03-23T11:57:29;99442.72;;;9.66;65.45
38038;BME280;23843;51.320;12.340;2024-03-23T11:59:56;99431.38;;;9.67;64.92
38038;BME280;23843;51.320;12.340;2024-03-23T12:02:22;99432.47;;;9.66;65.07
38038;BME280;23843;51.320;12.340;2024-03-23T12:04:47;99422.47;;;9.65;65.11
38038;BME280;23843;51.320;12.340;2024-03-23T12:07:14;99423.31;;;9.66;64.91
38038;BME280;23843;51.320;12.340;2024-03-23T12:09:40;99425.00;;;9.67;64.88
38038;BME280;23843;51.320;12.340;2024-03-23T12:12:10;99430.28;;;9.68;64.98
38038;BME280;23843;51.320;12.340;2024-03-23T12:14:36;99431.44;;;9.72;65.00
38038;BME280;23843;51.320;12.340;2024-03-23T12:17:11;99429.28;;;9.74;64.81
38038;BME280;23843;51.320;12.340;2024-03-23T12:19:36;99426.56;;;9.80;65.10
38038;BME280;23843;51.320;12.340;2024-03-23T12:22:03;99421.69;;;9.87;64.92
38038;BME280;23843;51.320;12.340;2024-03-23T12:24:28;99423.47;;;9.93;64.73
38038;BME280;23843;51.320;12.340;2024-03-23T12:26:54;99422.44;;;9.99;64.72
38038;BME280;23843;51.320;12.340;2024-03-23T12:29:19;99428.66;;;10.06;64.62
38038;BME280;23843;51.320;12.340;2024-03-23T12:31:44;99421.00;;;10.13;64.52
38038;BME280;23843;51.320;12.340;2024-03-23T12:34:11;99419.41;;;10.17;64.53
38038;BME280;23843;51.320;12.340;2024-03-23T12:36:37;99428.56;;;10.18;64.18
38038;BME280;23843;51.320;12.340;2024-03-23T12:39:03;99427.47;;;10.19;64.25
38038;BME280;23843;51.320;12.340;2024-03-23T12:41:28;99422.28;;;10.22;64.20
38038;BME280;23843;51.320;12.340;2024-03-23T12:43:57;99418.13;;;10.25;64.12
38038;BME280;23843;51.320;12.340;2024-03-23T12:46:22;99410.97;;;10.29;63.93
38038;BME280;23843;51.320;12.340;2024-03-23T12:48:47;99399.09;;;10.33;64.03
38038;BME280;23843;51.320;12.340;2024-03-23T12:51:14;99400.78;;;10.34;64.09
38038;BME280;23843;51.320;12.340;2024-03-23T12:53:40;99393.59;;;10.38;63.83
38038;BME280;23843;51.320;12.340;2024-03-23T12:56:06;99398.41;;;10.43;63.89
38038;BME280;23843;51.320;12.340;2024-03-23T12:58:31;99396.50;;;10.48;64.06
38038;BME280;23843;51.320;12.340;2024-03-23T13:00:58;99399.34;;;10.53;63.78
38038;BME280;23843;51.320;12.340;2024-03-23T13:03:23;99386.38;;;10.59;63.97
38038;BME280;23843;51.320;12.340;2024-03-23T13:05:51;99385.59;;;10.64;64.21
38038;BME280;23843;51.320;12.340;2024-03-23T13:08:18;99374.53;;;10.69;63.93
38038;BME280;23843;51.320;12.340;2024-03-23T13:10:43;99367.38;;;10.73;63.94
38038;BME280;23843;51.320;12.340;2024-03-23T13:13:09;99369.63;;;10.76;63.45
38038;BME280;23843;51.320;12.340;2024-03-23T13:15:34;99365.75;;;10.77;63.71
38038;BME280;23843;51.320;12.340;2024-03-23T13:18:00;99368.50;;;10.77;63.66
38038;BME280;23843;51.320;12.340;2024-03-23T13:20:25;99358.50;;;10.76;63.33
38038;BME280;23843;51.320;12.340;2024-03-23T13:22:51;99361.03;;;10.77;63.57
38038;BME280;23843;51.320;12.340;2024-03-23T13:25:18;99363.00;;;10.82;63.76
38038;BME280;23843;51.320;12.340;2024-03-23T13:27:43;99362.25;;;10.86;63.30
38038;BME280;23843;51.320;12.340;2024-03-23T13:30:09;99350.06;;;10.92;63.54
38038;BME280;23843;51.320;12.340;2024-03-23T13:32:35;99342.88;;;10.97;63.53
38038;BME280;23843;51.320;12.340;2024-03-23T13:35:00;99347.13;;;11.04;63.42
38038;BME280;23843;51.320;12.340;2024-03-23T13:37:26;99361.34;;;11.08;62.71
38038;BME280;23843;51.320;12.340;2024-03-23T13:39:51;99351.66;;;11.10;63.15
38038;BME280;23843;51.320;12.340;2024-03-23T13:42:18;99358.84;;;11.11;62.90